sensor_id;sensor_type;location;lat;lon;timestamp;P1;durP1;ratioP1;P2;durP2;ratioP2
78296;SDS011;67555;47.660;19.622;2023-06-10T00:01:43;8.23;;;1.63;;
78296;SDS011;67555;47.660;19.622;2023-06-10T00:06:38;7.50;;;1.40;;
78296;SDS011;67555;47.660;19.622;2023-06-10T00:09:05;10.82;;;2.05;;
78296;SDS011;67555;47.660;19.622;2023-06-10T00:11:33;3.50;;;0.90;;
78296;SDS011;67555;47.660;19.622;2023-06-10T00:13:59;2.40;;;0.80;;
78296;SDS011;67555;47.660;19.622;2023-06-10T00:16:25;13.27;;;1.77;;
78296;SDS011;67555;47.660;19.622;2023-06-10T00:18:51;9.38;;;1.40;;
78296;SDS011;67555;47.660;19.622;2023-06-10T00:21:17;6.18;;;1.50;;
78296;SDS011;67555;47.660;19.622;2023-06-10T00:23:44;4.72;;;1.30;;
78296;SDS011;67555;47.660;19.622;2023-06-10T00:26:09;4.53;;;1.45;;
78296;SDS011;67555;47.660;19.622;2023-06-10T00:28:35;4.13;;;1.35;;
78296;SDS011;67555;47.660;19.622;2023-06-10T00:31:01;3.97;;;1.00;;
78296;SDS011;67555;47.660;19.622;2023-06-10T00:33:27;7.25;;;1.60;;
78296;SDS011;67555;47.660;19.622;2023-06-10T00:35:53;4.90;;;1.02;;
78296;SDS011;67555;47.660;19.622;2023-06-10T00:38:19;1.98;;;0.90;;
78296;SDS011;67555;47.660;19.622;2023-06-10T00:40:45;4.53;;;1.60;;
78296;SDS011;67555;47.660;19.622;2023-06-10T00:43:11;2.13;;;1.02;;
78296;SDS011;67555;47.660;19.622;2023-06-10T00:45:36;3.53;;;1.20;;
78296;SDS011;67555;47.660;19.622;2023-06-10T00:48:02;2.28;;;1.13;;
78296;SDS011;67555;47.660;19.622;2023-06-10T00:50:29;5.40;;;1.30;;
78296;SDS011;67555;47.660;19.622;2023-06-10T00:52:56;7.30;;;1.30;;
78296;SDS011;67555;47.660;19.622;2023-06-10T00:55:23;4.75;;;1.17;;
78296;SDS011;67555;47.660;19.622;2023-06-10T00:57:52;1.25;;;0.82;;
78296;SDS011;67555;47.660;19.622;2023-06-10T01:00:19;4.97;;;1.23;;
78296;SDS011;67555;47.660;19.622;2023-06-10T01:02:45;2.00;;;0.98;;
78296;SDS011;67555;47.660;19.622;2023-06-10T01:05:11;4.28;;;1.15;;
78296;SDS011;67555;47.660;19.622;2023-06-10T01:07:43;1.50;;;1.10;;
78296;SDS011;67555;47.660;19.622;2023-06-10T01:10:16;2.78;;;0.85;;
78296;SDS011;67555;47.660;19.622;2023-06-10T01:12:58;2.58;;;0.52;;
78296;SDS011;67555;47.660;19.622;2023-06-10T01:15:27;7.13;;;1.13;;
78296;SDS011;67555;47.660;19.622;2023-06-10T01:18:00;3.40;;;1.00;;
78296;SDS011;67555;47.660;19.622;2023-06-10T01:20:34;1.83;;;0.80;;
78296;SDS011;67555;47.660;19.622;2023-06-10T01:23:02;3.95;;;1.42;;
78296;SDS011;67555;47.660;19.622;2023-06-10T01:25:29;4.30;;;0.90;;
78296;SDS011;67555;47.660;19.622;2023-06-10T01:33:37;2.00;;;0.82;;
78296;SDS011;67555;47.660;19.622;2023-06-10T01:36:10;8.05;;;1.48;;
78296;SDS011;67555;47.660;19.622;2023-06-10T01:38:39;2.55;;;1.35;;
78296;SDS011;67555;47.660;19.622;2023-06-10T01:41:07;1.55;;;1.08;;
78296;SDS011;67555;47.660;19.622;2023-06-10T01:43:34;3.15;;;0.88;;
78296;SDS011;67555;47.660;19.622;2023-06-10T01:46:02;1.45;;;1.02;;
78296;SDS011;67555;47.660;19.622;2023-06-10T01:48:28;2.03;;;1.30;;
78296;SDS011;67555;47.660;19.622;2023-06-10T01:50:53;1.73;;;0.88;;
78296;SDS011;67555;47.660;19.622;2023-06-10T01:53:21;2.40;;;1.30;;
78296;SDS011;67555;47.660;19.622;2023-06-10T01:55:47;5.07;;;1.55;;
78296;SDS011;67555;47.660;19.622;2023-06-10T01:58:13;2.45;;;1.05;;
78296;SDS011;67555;47.660;19.622;2023-06-10T02:00:39;9.15;;;1.50;;
78296;SDS011;67555;47.660;19.622;2023-06-10T02:03:05;1.73;;;1.30;;
78296;SDS011;67555;47.660;19.622;2023-06-10T02:05:30;3.78;;;1.30;;
78296;SDS011;67555;47.660;19.622;2023-06-10T02:07:57;1.02;;;0.95;;
78296;SDS011;67555;47.660;19.622;2023-06-10T02:10:23;4.88;;;1.40;;
78296;SDS011;67555;47.660;19.622;2023-06-10T02:12:48;2.92;;;1.00;;
78296;SDS011;67555;47.660;19.622;2023-06-10T02:15:14;4.25;;;1.20;;
78296;SDS011;67555;47.660;19.622;2023-06-10T02:17:40;4.30;;;0.90;;
78296;SDS011;67555;47.660;19.622;2023-06-10T02:20:06;4.88;;;0.93;;
78296;SDS011;67555;47.660;19.622;2023-06-10T02:22:33;2.92;;;0.65;;
78296;SDS011;67555;47.660;19.622;2023-06-10T02:25:00;0.93;;;0.70;;
78296;SDS011;67555;47.660;19.622;2023-06-10T02:27:26;1.77;;;1.08;;
78296;SDS011;67555;47.660;19.622;2023-06-10T02:29:52;3.60;;;1.08;;
78296;SDS011;67555;47.660;19.622;2023-06-10T02:32:17;3.70;;;0.90;;
78296;SDS011;67555;47.660;19.622;2023-06-10T02:34:43;1.00;;;0.85;;
78296;SDS011;67555;47.660;19.622;2023-06-10T02:37:10;2.17;;;0.75;;
78296;SDS011;67555;47.660;19.622;2023-06-10T02:39:36;6.53;;;1.33;;
78296;SDS011;67555;47.660;19.622;2023-06-10T02:42:02;4.03;;;1.00;;
78296;SDS011;67555;47.660;19.622;2023-06-10T02:44:28;4.25;;;1.35;;
78296;SDS011;67555;47.660;19.622;2023-06-10T02:46:53;2.10;;;0.90;;
78296;SDS011;67555;47.660;19.622;2023-06-10T02:49:19;3.53;;;1.20;;
78296;SDS011;67555;47.660;19.622;2023-06-10T02:51:45;1.77;;;1.20;;
78296;SDS011;67555;47.660;19.622;2023-06-10T02:54:11;3.00;;;1.20;;
78296;SDS011;67555;47.660;19.622;2023-06-10T02:56:36;5.40;;;1.67;;
78296;SDS011;67555;47.660;19.622;2023-06-10T02:59:06;2.30;;;1.27;;
78296;SDS011;67555;47.660;19.622;2023-06-10T03:01:33;3.13;;;1.20;;
78296;SDS011;67555;47.660;19.622;2023-06-10T03:04:01;8.20;;;1.67;;
78296;SDS011;67555;47.660;19.622;2023-06-10T03:06:31;12.57;;;2.15;;
78296;SDS011;67555;47.660;19.622;2023-06-10T03:08:59;5.15;;;1.40;;
78296;SDS011;67555;47.660;19.622;2023-06-10T03:11:25;5.68;;;1.27;;
78296;SDS011;67555;47.660;19.622;2023-06-10T03:13:51;0.95;;;0.93;;
78296;SDS011;67555;47.660;19.622;2023-06-10T03:16:20;2.05;;;0.88;;
78296;SDS011;67555;47.660;19.622;2023-06-10T03:18:46;2.17;;;1.05;;
78296;SDS011;67555;47.660;19.622;2023-06-10T03:21:12;1.80;;;0.95;;
78296;SDS011;67555;47.660;19.622;2023-06-10T03:23:37;1.13;;;0.70;;
78296;SDS011;67555;47.660;19.622;2023-06-10T03:26:04;2.03;;;1.00;;
78296;SDS011;67555;47.660;19.622;2023-06-10T03:28:32;1.17;;;0.90;;
78296;SDS011;67555;47.660;19.622;2023-06-10T03:30:58;0.80;;;0.52;;
78296;SDS011;67555;47.660;19.622;2023-06-10T03:33:24;0.82;;;0.82;;
78296;SDS011;67555;47.660;19.622;2023-06-10T03:35:49;0.75;;;0.63;;
78296;SDS011;67555;47.660;19.622;2023-06-10T03:38:16;0.77;;;0.68;;
78296;SDS011;67555;47.660;19.622;2023-06-10T03:40:41;0.40;;;0.40;;
78296;SDS011;67555;47.660;19.622;2023-06-10T03:43:07;0.20;;;0.20;;
78296;SDS011;67555;47.660;19.622;2023-06-10T03:45:33;0.70;;;0.70;;
78296;SDS011;67555;47.660;19.622;2023-06-10T03:47:59;0.20;;;0.20;;
78296;SDS011;67555;47.660;19.622;2023-06-10T03:50:26;0.15;;;0.15;;
78296;SDS011;67555;47.660;19.622;2023-06-10T03:52:51;0.28;;;0.28;;
78296;SDS011;67555;47.660;19.622;2023-06-10T03:55:17;0.20;;;0.20;;
78296;SDS011;67555;47.660;19.622;2023-06-10T03:57:43;0.22;;;0.22;;
78296;SDS011;67555;47.660;19.622;2023-06-10T04:00:09;0.38;;;0.35;;
78296;SDS011;67555;47.660;19.622;2023-06-10T04:02:38;0.43;;;0.43;;
78296;SDS011;67555;47.660;19.622;2023-06-10T04:05:17;0.30;;;0.30;;
78296;SDS011;67555;47.660;19.622;2023-06-10T04:07:46;0.30;;;0.28;;
78296;SDS011;67555;47.660;19.622;2023-06-10T04:10:13;0.38;;;0.35;;
78296;SDS011;67555;47.660;19.622;2023-06-10T04:12:40;0.30;;;0.30;;
78296;SDS011;67555;47.660;19.622;2023-06-10T04:15:06;0.25;;;0.25;;
78296;SDS011;67555;47.660;19.622;2023-06-10T04:17:32;0.20;;;0.20;;
78296;SDS011;67555;47.660;19.622;2023-06-10T04:19:58;0.20;;;0.20;;
78296;SDS011;67555;47.660;19.622;2023-06-10T04:22:24;0.20;;;0.20;;
78296;SDS011;67555;47.660;19.622;2023-06-10T04:24:51;0.73;;;0.47;;
78296;SDS011;67555;47.660;19.622;2023-06-10T04:27:16;0.22;;;0.22;;
78296;SDS011;67555;47.660;19.622;2023-06-10T04:29:42;0.35;;;0.30;;
78296;SDS011;67555;47.660;19.622;2023-06-10T04:32:08;0.25;;;0.25;;
78296;SDS011;67555;47.660;19.622;2023-06-10T04:34:34;0.32;;;0.32;;
78296;SDS011;67555;47.660;19.622;2023-06-10T04:36:59;0.22;;;0.22;;
78296;SDS011;67555;47.660;19.622;2023-06-10T04:39:25;0.32;;;0.32;;
78296;SDS011;67555;47.660;19.622;2023-06-10T04:41:52;0.28;;;0.28;;
78296;SDS011;67555;47.660;19.622;2023-06-10T04:44:18;0.22;;;0.22;;
78296;SDS011;67555;47.660;19.622;2023-06-10T04:46:43;0.30;;;0.30;;
78296;SDS011;67555;47.660;19.622;2023-06-10T04:49:10;0.15;;;0.15;;
78296;SDS011;67555;47.660;19.622;2023-06-10T04:51:37;0.20;;;0.20;;
78296;SDS011;67555;47.660;19.622;2023-06-10T04:54:03;0.40;;;0.40;;
78296;SDS011;67555;47.660;19.622;2023-06-10T04:56:29;0.32;;;0.32;;
78296;SDS011;67555;47.660;19.622;2023-06-10T04:58:58;0.30;;;0.30;;
78296;SDS011;67555;47.660;19.622;2023-06-10T05:01:25;0.22;;;0.22;;
78296;SDS011;67555;47.660;19.622;2023-06-10T05:03:51;0.40;;;0.40;;
78296;SDS011;67555;47.660;19.622;2023-06-10T05:06:17;0.25;;;0.25;;
78296;SDS011;67555;47.660;19.622;2023-06-10T05:08:43;0.40;;;0.40;;
78296;SDS011;67555;47.660;19.622;2023-06-10T05:11:08;0.47;;;0.40;;
78296;SDS011;67555;47.660;19.622;2023-06-10T05:13:35;0.75;;;0.50;;
78296;SDS011;67555;47.660;19.622;2023-06-10T05:16:00;0.52;;;0.50;;
78296;SDS011;67555;47.660;19.622;2023-06-10T05:18:27;0.47;;;0.47;;
78296;SDS011;67555;47.660;19.622;2023-06-10T05:20:53;0.35;;;0.35;;
78296;SDS011;67555;47.660;19.622;2023-06-10T05:23:19;0.30;;;0.30;;
78296;SDS011;67555;47.660;19.622;2023-06-10T05:25:48;0.50;;;0.50;;
78296;SDS011;67555;47.660;19.622;2023-06-10T05:28:14;0.45;;;0.45;;
78296;SDS011;67555;47.660;19.622;2023-06-10T05:30:40;0.47;;;0.47;;
78296;SDS011;67555;47.660;19.622;2023-06-10T05:33:06;1.00;;;0.52;;
78296;SDS011;67555;47.660;19.622;2023-06-10T05:35:32;0.50;;;0.50;;
78296;SDS011;67555;47.660;19.622;2023-06-10T05:37:57;0.30;;;0.30;;
78296;SDS011;67555;47.660;19.622;2023-06-10T05:40:23;0.30;;;0.30;;
78296;SDS011;67555;47.660;19.622;2023-06-10T05:42:49;0.47;;;0.47;;
78296;SDS011;67555;47.660;19.622;2023-06-10T05:45:15;0.28;;;0.28;;
78296;SDS011;67555;47.660;19.622;2023-06-10T05:47:41;0.47;;;0.47;;
78296;SDS011;67555;47.660;19.622;2023-06-10T05:50:07;0.30;;;0.30;;
78296;SDS011;67555;47.660;19.622;2023-06-10T05:52:34;0.50;;;0.50;;
78296;SDS011;67555;47.660;19.622;2023-06-10T05:55:00;0.40;;;0.40;;
78296;SDS011;67555;47.660;19.622;2023-06-10T05:57:30;0.30;;;0.30;;
78296;SDS011;67555;47.660;19.622;2023-06-10T05:59:56;0.60;;;0.60;;
78296;SDS011;67555;47.660;19.622;2023-06-10T06:02:21;0.65;;;0.65;;
78296;SDS011;67555;47.660;19.622;2023-06-10T06:04:47;0.57;;;0.43;;
78296;SDS011;67555;47.660;19.622;2023-06-10T06:07:13;0.50;;;0.50;;
78296;SDS011;67555;47.660;19.622;2023-06-10T06:09:38;0.50;;;0.50;;
78296;SDS011;67555;47.660;19.622;2023-06-10T06:12:04;0.57;;;0.57;;
78296;SDS011;67555;47.660;19.622;2023-06-10T06:14:32;0.60;;;0.60;;
78296;SDS011;67555;47.660;19.622;2023-06-10T06:17:02;0.52;;;0.52;;
78296;SDS011;67555;47.660;19.622;2023-06-10T06:19:27;0.52;;;0.52;;
78296;SDS011;67555;47.660;19.622;2023-06-10T06:21:54;0.30;;;0.30;;
78296;SDS011;67555;47.660;19.622;2023-06-10T06:24:19;0.60;;;0.60;;
78296;SDS011;67555;47.660;19.622;2023-06-10T06:26:45;0.35;;;0.35;;
78296;SDS011;67555;47.660;19.622;2023-06-10T06:29:11;0.40;;;0.40;;
78296;SDS011;67555;47.660;19.622;2023-06-10T06:31:36;0.50;;;0.50;;
78296;SDS011;67555;47.660;19.622;2023-06-10T06:34:02;0.50;;;0.50;;
78296;SDS011;67555;47.660;19.622;2023-06-10T06:36:28;0.47;;;0.47;;
78296;SDS011;67555;47.660;19.622;2023-06-10T06:38:54;0.40;;;0.40;;
78296;SDS011;67555;47.660;19.622;2023-06-10T06:41:20;0.45;;;0.45;;
78296;SDS011;67555;47.660;19.622;2023-06-10T06:43:47;0.40;;;0.40;;
78296;SDS011;67555;47.660;19.622;2023-06-10T06:46:12;0.40;;;0.40;;
78296;SDS011;67555;47.660;19.622;2023-06-10T06:48:38;0.60;;;0.60;;
78296;SDS011;67555;47.660;19.622;2023-06-10T06:51:04;0.30;;;0.30;;
78296;SDS011;67555;47.660;19.622;2023-06-10T06:53:30;0.70;;;0.70;;
78296;SDS011;67555;47.660;19.622;2023-06-10T06:55:56;0.43;;;0.43;;
78296;SDS011;67555;47.660;19.622;2023-06-10T06:58:21;0.60;;;0.60;;
78296;SDS011;67555;47.660;19.622;2023-06-10T07:00:47;0.40;;;0.40;;
78296;SDS011;67555;47.660;19.622;2023-06-10T07:03:18;0.45;;;0.45;;
78296;SDS011;67555;47.660;19.622;2023-06-10T07:05:43;0.52;;;0.52;;
78296;SDS011;67555;47.660;19.622;2023-06-10T07:08:09;0.40;;;0.40;;
78296;SDS011;67555;47.660;19.622;2023-06-10T07:10:36;0.43;;;0.43;;
78296;SDS011;67555;47.660;19.622;2023-06-10T07:13:02;0.30;;;0.30;;
78296;SDS011;67555;47.660;19.622;2023-06-10T07:15:29;0.22;;;0.22;;
78296;SDS011;67555;47.660;19.622;2023-06-10T07:17:55;0.32;;;0.32;;
78296;SDS011;67555;47.660;19.622;2023-06-10T07:20:21;0.20;;;0.20;;
78296;SDS011;67555;47.660;19.622;2023-06-10T07:22:46;0.32;;;0.32;;
78296;SDS011;67555;47.660;19.622;2023-06-10T07:25:12;0.40;;;0.40;;
78296;SDS011;67555;47.660;19.622;2023-06-10T07:27:38;0.40;;;0.40;;
78296;SDS011;67555;47.660;19.622;2023-06-10T07:30:04;0.43;;;0.43;;
78296;SDS011;67555;47.660;19.622;2023-06-10T07:32:34;0.20;;;0.20;;
78296;SDS011;67555;47.660;19.622;2023-06-10T07:34:59;0.30;;;0.30;;
78296;SDS011;67555;47.660;19.622;2023-06-10T07:37:25;0.17;;;0.17;;
78296;SDS011;67555;47.660;19.622;2023-06-10T07:39:51;0.10;;;0.10;;
78296;SDS011;67555;47.660;19.622;2023-06-10T07:42:16;0.30;;;0.30;;
78296;SDS011;67555;47.660;19.622;2023-06-10T07:44:42;0.20;;;0.20;;
78296;SDS011;67555;47.660;19.622;2023-06-10T07:47:11;0.20;;;0.20;;
78296;SDS011;67555;47.660;19.622;2023-06-10T07:49:37;0.20;;;0.20;;
78296;SDS011;67555;47.660;19.622;2023-06-10T07:52:04;0.15;;;0.15;;
78296;SDS011;67555;47.660;19.622;2023-06-10T07:54:31;0.30;;;0.30;;
78296;SDS011;67555;47.660;19.622;2023-06-10T07:56:56;0.55;;;0.55;;
78296;SDS011;67555;47.660;19.622;2023-06-10T07:59:22;0.30;;;0.30;;
78296;SDS011;67555;47.660;19.622;2023-06-10T08:01:48;0.70;;;0.43;;
78296;SDS011;67555;47.660;19.622;2023-06-10T08:04:13;0.20;;;0.20;;
78296;SDS011;67555;47.660;19.622;2023-06-10T08:06:39;0.30;;;0.30;;
78296;SDS011;67555;47.660;19.622;2023-06-10T08:09:05;0.20;;;0.20;;
78296;SDS011;67555;47.660;19.622;2023-06-10T08:11:31;0.50;;;0.50;;
78296;SDS011;67555;47.660;19.622;2023-06-10T08:13:57;0.30;;;0.30;;
78296;SDS011;67555;47.660;19.622;2023-06-10T08:16:24;0.22;;;0.22;;
78296;SDS011;67555;47.660;19.622;2023-06-10T08:18:49;0.28;;;0.28;;
78296;SDS011;67555;47.660;19.622;2023-06-10T08:21:18;0.30;;;0.20;;
78296;SDS011;67555;47.660;19.622;2023-06-10T08:23:44;0.77;;;0.40;;
78296;SDS011;67555;47.660;19.622;2023-06-10T08:26:10;0.17;;;0.17;;
78296;SDS011;67555;47.660;19.622;2023-06-10T08:28:36;0.13;;;0.13;;
78296;SDS011;67555;47.660;19.622;2023-06-10T08:31:01;0.28;;;0.28;;
78296;SDS011;67555;47.660;19.622;2023-06-10T08:33:27;0.22;;;0.22;;
78296;SDS011;67555;47.660;19.622;2023-06-10T08:35:53;0.30;;;0.30;;
78296;SDS011;67555;47.660;19.622;2023-06-10T08:38:18;0.10;;;0.10;;
78296;SDS011;67555;47.660;19.622;2023-06-10T08:40:44;0.10;;;0.10;;
78296;SDS011;67555;47.660;19.622;2023-06-10T08:43:15;0.15;;;0.15;;
78296;SDS011;67555;47.660;19.622;2023-06-10T08:45:48;0.22;;;0.22;;
78296;SDS011;67555;47.660;19.622;2023-06-10T08:48:14;0.20;;;0.20;;
78296;SDS011;67555;47.660;19.622;2023-06-10T08:50:42;2.65;;;0.30;;
78296;SDS011;67555;47.660;19.622;2023-06-10T08:53:09;0.22;;;0.15;;
78296;SDS011;67555;47.660;19.622;2023-06-10T08:55:42;0.30;;;0.30;;
78296;SDS011;67555;47.660;19.622;2023-06-10T08:58:10;0.10;;;0.10;;
78296;SDS011;67555;47.660;19.622;2023-06-10T09:00:37;0.03;;;0.03;;
78296;SDS011;67555;47.660;19.622;2023-06-10T09:03:04;0.30;;;0.30;;
78296;SDS011;67555;47.660;19.622;2023-06-10T09:05:33;0.20;;;0.20;;
78296;SDS011;67555;47.660;19.622;2023-06-10T09:08:00;0.25;;;0.25;;
78296;SDS011;67555;47.660;19.622;2023-06-10T09:10:26;0.70;;;0.40;;
78296;SDS011;67555;47.660;19.622;2023-06-10T09:12:52;0.20;;;0.10;;
78296;SDS011;67555;47.660;19.622;2023-06-10T09:15:17;0.30;;;0.30;;
78296;SDS011;67555;47.660;19.622;2023-06-10T09:17:43;0.20;;;0.20;;
78296;SDS011;67555;47.660;19.622;2023-06-10T09:20:10;0.20;;;0.20;;
78296;SDS011;67555;47.660;19.622;2023-06-10T09:22:36;0.20;;;0.20;;
78296;SDS011;67555;47.660;19.622;2023-06-10T09:25:03;0.20;;;0.17;;
78296;SDS011;67555;47.660;19.622;2023-06-10T09:27:48;0.17;;;0.17;;
78296;SDS011;67555;47.660;19.622;2023-06-10T09:30:49;0.17;;;0.17;;
78296;SDS011;67555;47.660;19.622;2023-06-10T09:33:12;0.43;;;0.22;;
78296;SDS011;67555;47.660;19.622;2023-06-10T09:35:46;0.22;;;0.15;;
78296;SDS011;67555;47.660;19.622;2023-06-10T09:38:14;0.20;;;0.20;;
78296;SDS011;67555;47.660;19.622;2023-06-10T09:40:51;0.08;;;0.08;;
78296;SDS011;67555;47.660;19.622;2023-06-10T09:43:18;0.17;;;0.17;;
78296;SDS011;67555;47.660;19.622;2023-06-10T09:45:47;0.52;;;0.35;;
78296;SDS011;67555;47.660;19.622;2023-06-10T09:48:14;0.03;;;0.03;;
78296;SDS011;67555;47.660;19.622;2023-06-10T09:50:44;0.20;;;0.20;;
78296;SDS011;67555;47.660;19.622;2023-06-10T09:53:10;0.13;;;0.13;;
78296;SDS011;67555;47.660;19.622;2023-06-10T09:55:40;0.13;;;0.10;;
78296;SDS011;67555;47.660;19.622;2023-06-10T09:58:07;0.00;;;0.00;;
78296;SDS011;67555;47.660;19.622;2023-06-10T10:00:33;0.20;;;0.20;;
78296;SDS011;67555;47.660;19.622;2023-06-10T10:02:59;0.10;;;0.10;;
78296;SDS011;67555;47.660;19.622;2023-06-10T10:05:26;0.30;;;0.30;;
78296;SDS011;67555;47.660;19.622;2023-06-10T10:07:52;0.10;;;0.10;;
78296;SDS011;67555;47.660;19.622;2023-06-10T10:10:19;0.08;;;0.08;;
78296;SDS011;67555;47.660;19.622;2023-06-10T10:12:46;0.32;;;0.20;;
78296;SDS011;67555;47.660;19.622;2023-06-10T10:15:12;0.10;;;0.10;;
78296;SDS011;67555;47.660;19.622;2023-06-10T10:20:31;0.20;;;0.20;;
78296;SDS011;67555;47.660;19.622;2023-06-10T10:23:00;0.10;;;0.10;;
78296;SDS011;67555;47.660;19.622;2023-06-10T10:25:28;0.08;;;0.08;;
78296;SDS011;67555;47.660;19.622;2023-06-10T10:28:12;0.22;;;0.17;;
78296;SDS011;67555;47.660;19.622;2023-06-10T10:30:45;0.00;;;0.00;;
78296;SDS011;67555;47.660;19.622;2023-06-10T10:33:26;0.00;;;0.00;;
78296;SDS011;67555;47.660;19.622;2023-06-10T10:35:58;0.00;;;0.00;;
78296;SDS011;67555;47.660;19.622;2023-06-10T10:38:24;0.10;;;0.10;;
78296;SDS011;67555;47.660;19.622;2023-06-10T10:40:50;0.10;;;0.10;;
78296;SDS011;67555;47.660;19.622;2023-06-10T10:43:17;0.10;;;0.10;;
78296;SDS011;67555;47.660;19.622;2023-06-10T10:45:57;0.10;;;0.10;;
78296;SDS011;67555;47.660;19.622;2023-06-10T10:48:26;0.17;;;0.17;;
78296;SDS011;67555;47.660;19.622;2023-06-10T10:50:58;0.63;;;0.10;;
78296;SDS011;67555;47.660;19.622;2023-06-10T10:53:24;0.10;;;0.10;;
78296;SDS011;67555;47.660;19.622;2023-06-10T10:56:09;0.20;;;0.20;;
78296;SDS011;67555;47.660;19.622;2023-06-10T10:58:40;0.20;;;0.20;;
78296;SDS011;67555;47.660;19.622;2023-06-10T11:01:11;0.22;;;0.22;;
78296;SDS011;67555;47.660;19.622;2023-06-10T11:03:42;0.20;;;0.20;;
78296;SDS011;67555;47.660;19.622;2023-06-10T11:06:17;0.20;;;0.20;;
78296;SDS011;67555;47.660;19.622;2023-06-10T11:11:23;0.10;;;0.10;;
78296;SDS011;67555;47.660;19.622;2023-06-10T11:16:29;0.17;;;0.17;;
78296;SDS011;67555;47.660;19.622;2023-06-10T11:18:55;0.17;;;0.17;;
78296;SDS011;67555;47.660;19.622;2023-06-10T11:21:24;0.05;;;0.05;;
78296;SDS011;67555;47.660;19.622;2023-06-10T11:23:51;0.20;;;0.20;;
78296;SDS011;67555;47.660;19.622;2023-06-10T11:31:24;0.17;;;0.17;;
78296;SDS011;67555;47.660;19.622;2023-06-10T11:36:21;0.08;;;0.08;;
78296;SDS011;67555;47.660;19.622;2023-06-10T11:38:48;0.10;;;0.10;;
78296;SDS011;67555;47.660;19.622;2023-06-10T11:41:14;0.10;;;0.10;;
78296;SDS011;67555;47.660;19.622;2023-06-10T11:43:43;0.10;;;0.10;;
78296;SDS011;67555;47.660;19.622;2023-06-10T11:46:13;0.17;;;0.17;;
78296;SDS011;67555;47.660;19.622;2023-06-10T11:48:48;0.20;;;0.20;;
78296;SDS011;67555;47.660;19.622;2023-06-10T11:51:17;0.10;;;0.10;;
78296;SDS011;67555;47.660;19.622;2023-06-10T11:53:43;0.40;;;0.40;;
78296;SDS011;67555;47.660;19.622;2023-06-10T11:56:13;0.30;;;0.30;;
78296;SDS011;67555;47.660;19.622;2023-06-10T11:58:44;0.10;;;0.10;;
78296;SDS011;67555;47.660;19.622;2023-06-10T12:01:10;0.20;;;0.10;;
78296;SDS011;67555;47.660;19.622;2023-06-10T12:03:36;0.20;;;0.20;;
78296;SDS011;67555;47.660;19.622;2023-06-10T12:06:04;0.17;;;0.17;;
78296;SDS011;67555;47.660;19.622;2023-06-10T12:08:31;0.13;;;0.13;;
78296;SDS011;67555;47.660;19.622;2023-06-10T12:10:58;0.20;;;0.20;;
78296;SDS011;67555;47.660;19.622;2023-06-10T12:13:27;0.10;;;0.10;;
78296;SDS011;67555;47.660;19.622;2023-06-10T12:15:53;0.20;;;0.20;;
78296;SDS011;67555;47.660;19.622;2023-06-10T12:18:21;0.10;;;0.10;;
78296;SDS011;67555;47.660;19.622;2023-06-10T12:20:48;0.10;;;0.10;;
78296;SDS011;67555;47.660;19.622;2023-06-10T12:23:15;0.17;;;0.17;;
78296;SDS011;67555;47.660;19.622;2023-06-10T12:25:52;0.20;;;0.20;;
78296;SDS011;67555;47.660;19.622;2023-06-10T12:28:22;0.08;;;0.08;;
78296;SDS011;67555;47.660;19.622;2023-06-10T12:30:48;0.20;;;0.20;;
78296;SDS011;67555;47.660;19.622;2023-06-10T12:33:18;0.10;;;0.10;;
78296;SDS011;67555;47.660;19.622;2023-06-10T12:35:47;0.35;;;0.20;;
78296;SDS011;67555;47.660;19.622;2023-06-10T12:38:15;0.05;;;0.05;;
78296;SDS011;67555;47.660;19.622;2023-06-10T12:40:52;0.20;;;0.20;;
78296;SDS011;67555;47.660;19.622;2023-06-10T12:43:24;0.00;;;0.00;;
78296;SDS011;67555;47.660;19.622;2023-06-10T12:45:51;0.10;;;0.10;;
78296;SDS011;67555;47.660;19.622;2023-06-10T12:50:53;0.00;;;0.00;;
78296;SDS011;67555;47.660;19.622;2023-06-10T12:53:22;0.13;;;0.13;;
78296;SDS011;67555;47.660;19.622;2023-06-10T12:55:50;0.30;;;0.30;;
78296;SDS011;67555;47.660;19.622;2023-06-10T12:58:16;0.20;;;0.20;;
78296;SDS011;67555;47.660;19.622;2023-06-10T13:00:42;0.10;;;0.10;;
78296;SDS011;67555;47.660;19.622;2023-06-10T13:03:08;0.20;;;0.20;;
78296;SDS011;67555;47.660;19.622;2023-06-10T13:05:35;0.20;;;0.20;;
78296;SDS011;67555;47.660;19.622;2023-06-10T13:08:07;0.10;;;0.10;;
78296;SDS011;67555;47.660;19.622;2023-06-10T13:10:35;0.10;;;0.10;;
78296;SDS011;67555;47.660;19.622;2023-06-10T13:13:01;0.00;;;0.00;;
78296;SDS011;67555;47.660;19.622;2023-06-10T13:15:30;0.13;;;0.13;;
78296;SDS011;67555;47.660;19.622;2023-06-10T13:17:56;0.10;;;0.10;;
78296;SDS011;67555;47.660;19.622;2023-06-10T13:20:21;0.20;;;0.20;;
78296;SDS011;67555;47.660;19.622;2023-06-10T13:22:47;0.20;;;0.20;;
78296;SDS011;67555;47.660;19.622;2023-06-10T13:25:14;0.17;;;0.17;;
78296;SDS011;67555;47.660;19.622;2023-06-10T13:27:40;0.25;;;0.25;;
78296;SDS011;67555;47.660;19.622;2023-06-10T13:30:07;0.15;;;0.15;;
78296;SDS011;67555;47.660;19.622;2023-06-10T13:32:34;0.10;;;0.10;;
78296;SDS011;67555;47.660;19.622;2023-06-10T13:35:01;0.08;;;0.08;;
78296;SDS011;67555;47.660;19.622;2023-06-10T13:37:28;0.00;;;0.00;;
78296;SDS011;67555;47.660;19.622;2023-06-10T13:39:53;0.10;;;0.10;;
78296;SDS011;67555;47.660;19.622;2023-06-10T13:42:19;0.10;;;0.10;;
78296;SDS011;67555;47.660;19.622;2023-06-10T13:44:46;0.40;;;0.40;;
78296;SDS011;67555;47.660;19.622;2023-06-10T13:47:13;0.30;;;0.20;;
78296;SDS011;67555;47.660;19.622;2023-06-10T13:49:39;0.05;;;0.05;;
78296;SDS011;67555;47.660;19.622;2023-06-10T13:52:05;0.00;;;0.00;;
78296;SDS011;67555;47.660;19.622;2023-06-10T13:54:32;0.43;;;0.30;;
78296;SDS011;67555;47.660;19.622;2023-06-10T13:56:58;0.20;;;0.20;;
78296;SDS011;67555;47.660;19.622;2023-06-10T13:59:25;0.13;;;0.13;;
78296;SDS011;67555;47.660;19.622;2023-06-10T14:01:51;0.08;;;0.08;;
78296;SDS011;67555;47.660;19.622;2023-06-10T14:04:16;0.40;;;0.40;;
78296;SDS011;67555;47.660;19.622;2023-06-10T14:06:42;0.10;;;0.10;;
78296;SDS011;67555;47.660;19.622;2023-06-10T14:09:08;0.20;;;0.20;;
78296;SDS011;67555;47.660;19.622;2023-06-10T14:11:34;1.08;;;0.28;;
78296;SDS011;67555;47.660;19.622;2023-06-10T14:14:00;0.17;;;0.17;;
78296;SDS011;67555;47.660;19.622;2023-06-10T14:16:26;0.17;;;0.17;;
78296;SDS011;67555;47.660;19.622;2023-06-10T14:18:52;0.10;;;0.10;;
78296;SDS011;67555;47.660;19.622;2023-06-10T14:21:18;0.10;;;0.10;;
78296;SDS011;67555;47.660;19.622;2023-06-10T14:23:43;0.10;;;0.10;;
78296;SDS011;67555;47.660;19.622;2023-06-10T14:26:10;0.10;;;0.10;;
78296;SDS011;67555;47.660;19.622;2023-06-10T14:28:38;0.13;;;0.13;;
78296;SDS011;67555;47.660;19.622;2023-06-10T14:31:03;0.15;;;0.15;;
78296;SDS011;67555;47.660;19.622;2023-06-10T14:33:29;0.35;;;0.35;;
78296;SDS011;67555;47.660;19.622;2023-06-10T14:35:56;0.03;;;0.03;;
78296;SDS011;67555;47.660;19.622;2023-06-10T14:38:22;0.10;;;0.10;;
78296;SDS011;67555;47.660;19.622;2023-06-10T14:40:48;1.02;;;0.30;;
78296;SDS011;67555;47.660;19.622;2023-06-10T14:43:14;0.13;;;0.13;;
78296;SDS011;67555;47.660;19.622;2023-06-10T14:45:40;0.43;;;0.43;;
78296;SDS011;67555;47.660;19.622;2023-06-10T14:48:06;0.40;;;0.40;;
78296;SDS011;67555;47.660;19.622;2023-06-10T14:50:32;0.40;;;0.40;;
78296;SDS011;67555;47.660;19.622;2023-06-10T14:53:02;0.22;;;0.20;;
78296;SDS011;67555;47.660;19.622;2023-06-10T14:55:28;0.32;;;0.32;;
78296;SDS011;67555;47.660;19.622;2023-06-10T14:57:53;0.10;;;0.10;;
78296;SDS011;67555;47.660;19.622;2023-06-10T15:00:20;0.10;;;0.10;;